Time;durP1;ratioP1;P1;durP2;ratioP2;P2;SDS_P1;SDS_P2;PMS_P1;PMS_P2;Temp;Humidity;BMP_temperature;BMP_pressure;BME280_temperature;BME280_humidity;BME280_pressure;Samples;Min_cycle;Max_cycle;Signal;HPM_P1;HPM_P2
2023/12/21 00:02:11;;;;;;;13.65;7.88;;;;;;;4.17;100.00;99611.09;7397022;19;20014;-71
2023/12/21 00:04:39;;;;;;;13.57;6.70;;;;;;;4.18;100.00;99602.44;7395508;19;20010;-72
2023/12/21 00:07:08;;;;;;;13.43;7.25;;;;;;;4.20;100.00;99590.31;7397236;19;20157;-72
2023/12/21 00:09:45;;;;;;;11.70;6.30;;;;;;;4.21;100.00;99585.09;7397356;19;20022;-72
2023/12/21 00:12:13;;;;;;;13.65;6.97;;;;;;;4.22;100.00;99578.16;7395540;19;20371;-72
2023/12/21 00:14:42;;;;;;;10.27;7.03;;;;;;;4.24;100.00;99571.22;7395352;19;20024;-72
2023/12/21 00:17:10;;;;;;;15.50;6.95;;;;;;;4.26;100.00;99569.47;7395829;19;20007;-73
2023/12/21 00:19:39;;;;;;;11.80;6.53;;;;;;;4.29;100.00;99552.97;7396542;19;20018;-73
2023/12/21 00:22:08;;;;;;;10.63;6.38;;;;;;;4.30;100.00;99541.72;7395211;19;20040;-72
2023/12/21 00:24:36;;;;;;;12.05;5.90;;;;;;;4.32;100.00;99553.78;7395053;19;20010;-72
2023/12/21 00:27:07;;;;;;;11.00;6.28;;;;;;;4.33;100.00;99533.88;7396629;19;20022;-70
2023/12/21 00:29:36;;;;;;;11.93;5.80;;;;;;;4.35;100.00;99530.38;7396341;19;20509;-71
2023/12/21 00:32:04;;;;;;;10.88;6.53;;;;;;;4.42;100.00;99519.88;7396512;19;20014;-69
2023/12/21 00:34:33;;;;;;;13.30;6.30;;;;;;;4.47;100.00;99512.88;7394694;19;20026;-68
2023/12/21 00:37:01;;;;;;;12.82;6.07;;;;;;;4.52;100.00;99513.66;7396207;19;20014;-68
2023/12/21 00:39:30;;;;;;;11.23;5.60;;;;;;;4.58;100.00;99529.13;7396385;19;20031;-68
2023/12/21 00:41:58;;;;;;;9.60;5.53;;;;;;;4.59;100.00;99473.69;7394304;19;20418;-74
2023/12/21 00:44:29;;;;;;;10.13;5.03;;;;;;;4.65;100.00;99509.09;7394193;19;20023;-69
2023/12/21 00:46:57;;;;;;;8.43;5.60;;;;;;;4.69;100.00;99509.03;7396085;19;20066;-68
2023/12/21 00:49:26;;;;;;;10.07;6.10;;;;;;;4.71;100.00;99483.88;7395718;19;20014;-68
2023/12/21 00:51:54;;;;;;;9.98;5.88;;;;;;;4.75;100.00;99500.25;7396039;19;20015;-67
2023/12/21 00:54:23;;;;;;;9.02;5.45;;;;;;;4.78;100.00;99487.22;7394237;19;20018;-68
2023/12/21 00:56:51;;;;;;;9.13;4.97;;;;;;;4.79;100.00;99469.88;7395405;19;20502;-68
2023/12/21 00:59:17;;;;;;;8.38;4.95;;;;;;;4.77;100.00;99485.50;7395699;19;20018;-68
2023/12/21 01:01:48;;;;;;;9.43;5.13;;;;;;;4.75;100.00;99492.44;7394426;19;20014;-68
2023/12/21 01:04:16;;;;;;;9.25;5.07;;;;;;;4.75;100.00;99487.25;7393994;19;20010;-68
2023/12/21 01:06:45;;;;;;;9.98;5.15;;;;;;;4.75;100.00;99465.63;7395077;19;20086;-68
2023/12/21 01:09:13;;;;;;;8.13;4.97;;;;;;;4.74;100.00;99462.19;7395404;19;20462;-68
2023/12/21 01:11:48;;;;;;;7.43;4.57;;;;;;;4.75;100.00;99478.63;7393304;19;20032;-68
2023/12/21 01:14:16;;;;;;;7.25;4.72;;;;;;;4.76;100.00;99477.75;7393902;19;20015;-68
2023/12/21 01:16:47;;;;;;;11.43;5.05;;;;;;;4.76;100.00;99443.97;7394857;19;20363;-68
2023/12/21 01:19:16;;;;;;;11.23;5.20;;;;;;;4.77;100.00;99453.47;7393098;19;20477;-68
2023/12/21 01:21:44;;;;;;;9.38;5.72;;;;;;;4.79;100.00;99485.47;7398080;19;20007;-69
2023/12/21 01:24:13;;;;;;;8.18;5.68;;;;;;;4.80;100.00;99440.41;7395130;19;20027;-68
2023/12/21 01:26:41;;;;;;;7.30;4.53;;;;;;;4.82;100.00;99449.03;7394979;19;20024;-68
2023/12/21 01:29:10;;;;;;;7.90;5.28;;;;;;;4.82;100.00;99443.84;7394605;19;20550;-69
2023/12/21 01:31:38;;;;;;;8.60;5.13;;;;;;;4.82;100.00;99429.09;7401887;19;20019;-69
2023/12/21 01:34:09;;;;;;;12.02;5.63;;;;;;;4.84;100.00;99448.13;7400082;19;20032;-68
2023/12/21 01:36:44;;;;;;;10.68;5.00;;;;;;;4.85;100.00;99443.78;7399102;19;20427;-68
2023/12/21 01:39:12;;;;;;;11.35;5.15;;;;;;;4.86;100.00;99427.31;7401999;19;20505;-68
2023/12/21 01:41:41;;;;;;;9.63;5.78;;;;;;;4.86;100.00;99441.13;7400496;19;20019;-68
2023/12/21 01:44:09;;;;;;;11.77;5.03;;;;;;;4.87;100.00;99424.66;7399409;19;20015;-68
2023/12/21 01:46:38;;;;;;;12.02;5.70;;;;;;;4.87;100.00;99418.63;7401954;19;20032;-68
2023/12/21 01:49:09;;;;;;;10.02;5.15;;;;;;;4.88;100.00;99428.13;7401958;19;20090;-68
2023/12/21 01:51:37;;;;;;;9.82;5.43;;;;;;;4.89;100.00;99435.03;7402282;19;20022;-68
2023/12/21 01:54:07;;;;;;;9.38;5.18;;;;;;;4.91;100.00;99422.88;7399102;19;20434;-68
2023/12/21 01:56:36;;;;;;;9.05;4.97;;;;;;;4.90;100.00;99434.13;7401608;19;20018;-68
2023/12/21 01:59:05;;;;;;;10.95;5.90;;;;;;;4.90;100.00;99431.53;7401541;19;20023;-68
2023/12/21 02:01:33;;;;;;;8.05;5.30;;;;;;;4.93;100.00;99431.50;7399617;19;20015;-68
2023/12/21 02:04:02;;;;;;;9.13;5.28;;;;;;;4.92;100.00;99410.75;7399331;19;20023;-68
2023/12/21 02:06:33;;;;;;;7.18;4.68;;;;;;;4.93;100.00;99410.72;7401304;19;20015;-68
2023/12/21 02:09:02;;;;;;;6.28;4.40;;;;;;;4.95;100.00;99413.28;7398337;19;20510;-68
2023/12/21 02:11:30;;;;;;;9.27;5.45;;;;;;;4.96;100.00;99395.03;7399440;19;20493;-68
2023/12/21 02:14:00;;;;;;;7.38;4.50;;;;;;;4.97;100.00;99391.56;7399842;19;20031;-68
2023/12/21 02:16:42;;;;;;;7.70;4.00;;;;;;;4.97;100.00;99396.75;7400650;19;20074;-68
2023/12/21 02:19:13;;;;;;;7.10;4.57;;;;;;;4.99;100.00;99383.72;7401371;19;20015;-68
2023/12/21 02:21:45;;;;;;;10.00;4.57;;;;;;;5.00;100.00;99375.03;7400047;19;20081;-68
2023/12/21 02:24:17;;;;;;;9.05;5.00;;;;;;;5.00;100.00;99354.25;7398774;19;20018;-68
2023/12/21 02:26:46;;;;;;;9.48;5.20;;;;;;;5.01;100.00;99364.59;7400400;19;20477;-68
2023/12/21 02:29:15;;;;;;;14.88;6.50;;;;;;;5.03;100.00;99336.84;7400677;19;20029;-68
2023/12/21 02:31:43;;;;;;;8.95;4.28;;;;;;;5.03;100.00;99352.44;7397642;19;20454;-68
2023/12/21 02:34:12;;;;;;;7.38;3.60;;;;;;;5.05;100.00;99350.69;7398513;19;20031;-68
2023/12/21 02:36:40;;;;;;;9.90;3.88;;;;;;;5.07;100.00;99324.63;7400430;19;20018;-68
2023/12/21 02:39:09;;;;;;;8.98;4.28;;;;;;;5.08;100.00;99331.56;7399903;19;20078;-68
2023/12/21 02:41:40;;;;;;;7.30;3.80;;;;;;;5.10;100.00;99340.16;7398086;19;20037;-68
2023/12/21 02:44:08;;;;;;;5.20;2.80;;;;;;;5.12;100.00;99321.91;7397869;19;20415;-68
2023/12/21 02:46:37;;;;;;;5.80;3.17;;;;;;;5.13;100.00;99323.63;7400114;19;20031;-68
2023/12/21 02:49:06;;;;;;;4.43;2.80;;;;;;;5.13;100.00;99323.63;7399961;19;20015;-68
2023/12/21 02:51:34;;;;;;;7.10;3.03;;;;;;;5.15;100.00;99327.06;7397491;19;20018;-68
2023/12/21 02:54:03;;;;;;;8.30;3.08;;;;;;;5.16;100.00;99321.81;7397927;19;20018;-68
2023/12/21 02:56:31;;;;;;;3.35;2.33;;;;;;;5.17;100.00;99317.50;7399749;19;20032;-68
2023/12/21 02:59:02;;;;;;;3.58;2.33;;;;;;;5.17;100.00;99309.69;7399334;19;20501;-69
2023/12/21 03:01:31;;;;;;;4.63;2.03;;;;;;;5.19;100.00;99315.69;7398297;19;20018;-68
2023/12/21 03:04:00;;;;;;;4.40;1.95;;;;;;;5.19;100.00;99308.78;7397181;19;20014;-69
2023/12/21 03:06:28;;;;;;;2.35;1.45;;;;;;;5.21;100.00;99303.53;7400151;19;20021;-69
2023/12/21 03:08:57;;;;;;;4.55;1.60;;;;;;;5.23;100.00;99301.72;7398173;19;20019;-70
2023/12/21 03:11:25;;;;;;;2.58;1.50;;;;;;;5.26;100.00;99298.19;7400363;19;20077;-69
2023/12/21 03:13:53;;;;;;;1.65;0.90;;;;;;;5.28;100.00;99297.31;7398789;19;20002;-70
2023/12/21 03:16:24;;;;;;;1.80;1.20;;;;;;;5.30;100.00;99289.47;7398926;19;20494;-69
2023/12/21 03:18:53;;;;;;;2.90;1.00;;;;;;;5.30;100.00;99285.09;7397211;19;20070;-68
2023/12/21 03:21:21;;;;;;;4.95;1.00;;;;;;;5.35;100.00;99283.25;7398333;19;20074;-69
2023/12/21 03:23:50;;;;;;;2.08;0.90;;;;;;;5.37;100.00;99284.06;7397286;19;20018;-69
2023/12/21 03:26:18;;;;;;;0.93;0.70;;;;;;;5.41;100.00;99284.00;7398338;19;20473;-69
2023/12/21 03:28:47;;;;;;;1.67;0.93;;;;;;;5.44;100.00;99271.75;7398604;19;20027;-69
2023/12/21 03:31:18;;;;;;;1.65;0.90;;;;;;;5.43;100.00;99261.41;7398451;19;20013;-69
2023/12/21 03:33:49;;;;;;;1.85;0.90;;;;;;;5.50;100.00;99266.41;7396695;19;20024;-69
2023/12/21 03:36:17;;;;;;;2.83;0.60;;;;;;;5.52;100.00;99255.97;7398793;19;20019;-68
2023/12/21 03:38:46;;;;;;;1.75;0.73;;;;;;;5.55;100.00;99254.16;7396209;19;20018;-69
2023/12/21 03:41:15;;;;;;;0.80;0.70;;;;;;;5.58;100.00;99244.56;7397859;19;20015;-69
2023/12/21 03:43:43;;;;;;;0.77;0.60;;;;;;;5.59;100.00;99249.72;7400119;19;20014;-69
2023/12/21 03:46:11;;;;;;;1.48;0.55;;;;;;;5.60;100.00;99248.84;7397660;19;20502;-69
2023/12/21 03:48:40;;;;;;;0.77;0.60;;;;;;;5.63;100.00;99247.91;7396249;19;20372;-69
2023/12/21 03:51:11;;;;;;;1.08;0.70;;;;;;;5.64;100.00;99244.41;7397812;19;20019;-69
2023/12/21 03:53:39;;;;;;;1.90;0.60;;;;;;;5.66;100.00;99235.69;7394832;19;20018;-69
2023/12/21 03:56:09;;;;;;;1.63;0.85;;;;;;;5.67;100.00;99240.00;7397610;19;20018;-69
2023/12/21 03:58:38;;;;;;;1.75;0.52;;;;;;;5.67;100.00;99239.13;7395456;19;20365;-69
2023/12/21 04:01:07;;;;;;;2.08;0.60;;;;;;;5.70;100.00;99242.50;7397701;19;20024;-69
2023/12/21 04:03:36;;;;;;;1.85;0.70;;;;;;;5.70;100.00;99234.69;7395791;19;20489;-68
2023/12/21 04:06:04;;;;;;;2.08;0.75;;;;;;;5.72;100.00;99232.03;7397237;19;20079;-68
2023/12/21 04:08:35;;;;;;;0.95;0.65;;;;;;;5.71;100.00;99223.41;7397183;19;20022;-69
2023/12/21 04:11:04;;;;;;;0.82;0.40;;;;;;;5.74;100.00;99221.59;7393988;19;20540;-68
2023/12/21 04:13:32;;;;;;;0.93;0.50;;;;;;;5.74;100.00;99219.84;7395140;19;20473;-69
2023/12/21 04:16:01;;;;;;;1.50;0.60;;;;;;;5.76;100.00;99231.06;7395271;19;20011;-69
2023/12/21 04:18:30;;;;;;;0.95;0.60;;;;;;;5.77;100.00;99224.97;7397137;19;20011;-69
2023/12/21 04:20:58;;;;;;;0.60;0.40;;;;;;;5.79;100.00;99214.53;7395199;19;20020;-68
2023/12/21 04:23:27;;;;;;;1.33;0.60;;;;;;;5.79;100.00;99210.19;7395170;19;20007;-67
2023/12/21 04:25:58;;;;;;;0.57;0.40;;;;;;;5.81;100.00;99204.94;7396219;19;20549;-68
2023/12/21 04:28:27;;;;;;;1.27;0.60;;;;;;;5.83;100.00;99203.16;7396294;19;20406;-68
2023/12/21 04:30:55;;;;;;;0.80;0.55;;;;;;;5.85;100.00;99203.94;7396233;19;20014;-68
2023/12/21 04:33:24;;;;;;;0.98;0.40;;;;;;;5.85;100.00;99190.94;7395320;19;20014;-68
2023/12/21 04:35:52;;;;;;;1.27;0.43;;;;;;;5.89;100.00;99189.97;7396787;19;20069;-69
2023/12/21 04:38:21;;;;;;;0.40;0.35;;;;;;;5.90;100.00;99189.03;7396079;19;20327;-69
2023/12/21 04:40:49;;;;;;;0.80;0.40;;;;;;;5.91;100.00;99193.38;7394259;19;20002;-69
2023/12/21 04:43:20;;;;;;;0.43;0.40;;;;;;;5.91;100.00;99201.16;7394677;19;20091;-69
2023/12/21 04:45:49;;;;;;;0.40;0.40;;;;;;;5.92;100.00;99205.50;7395688;19;20014;-69
2023/12/21 04:48:17;;;;;;;0.40;0.30;;;;;;;5.92;100.00;99202.88;7396631;19;20028;-69
2023/12/21 04:50:46;;;;;;;0.40;0.40;;;;;;;5.93;100.00;99199.41;7396047;19;20027;-69
2023/12/21 04:53:14;;;;;;;2.00;1.60;;;;;;;5.94;100.00;99195.91;7394596;19;20011;-69
2023/12/21 04:55:43;;;;;;;4.97;3.22;;;;;;;5.96;100.00;99193.25;7395635;19;20014;-69
2023/12/21 04:58:11;;;;;;;0.43;0.38;;;;;;;5.95;100.00;99181.13;7395704;19;20015;-68
2023/12/21 05:00:47;;;;;;;0.50;0.40;;;;;;;5.94;100.00;99193.28;7395220;19;20074;-69
2023/12/21 05:03:15;;;;;;;0.55;0.38;;;;;;;5.97;100.00;99198.41;7393495;19;20086;-69
2023/12/21 05:05:44;;;;;;;1.83;0.73;;;;;;;5.98;100.00;99197.53;7395113;19;20027;-69
2023/12/21 05:08:12;;;;;;;0.90;0.52;;;;;;;5.99;100.00;99183.63;7395716;19;20015;-69
2023/12/21 05:10:41;;;;;;;1.35;0.63;;;;;;;5.98;100.00;99181.94;7393673;19;20014;-69
2023/12/21 05:13:10;;;;;;;1.17;0.60;;;;;;;6.03;100.00;99189.63;7393342;19;20039;-69
2023/12/21 05:15:39;;;;;;;1.13;0.93;;;;;;;6.00;100.00;99182.75;7392964;19;20090;-69
2023/12/21 05:18:10;;;;;;;1.33;0.90;;;;;;;6.04;100.00;99183.53;7393116;19;20011;-69
2023/12/21 05:20:38;;;;;;;1.67;1.20;;;;;;;6.05;100.00;99176.56;7395100;19;20031;-69
2023/12/21 05:23:07;;;;;;;3.33;1.30;;;;;;;6.05;100.00;99169.56;7392800;19;20022;-69
2023/12/21 05:25:35;;;;;;;1.80;1.00;;;;;;;6.06;100.00;99173.91;7394164;19;20443;-69
2023/12/21 05:28:04;;;;;;;2.08;1.10;;;;;;;6.07;100.00;99169.56;7394634;19;20028;-69
2023/12/21 05:30:32;;;;;;;2.35;1.20;;;;;;;6.07;100.00;99162.59;7394696;19;20074;-69
2023/12/21 05:33:01;;;;;;;2.83;1.40;;;;;;;6.08;100.00;99166.91;7393955;19;20091;-69
2023/12/21 05:35:32;;;;;;;2.90;1.20;;;;;;;6.07;100.00;99167.78;7394143;19;20023;-69
2023/12/21 05:38:01;;;;;;;3.05;1.40;;;;;;;6.07;100.00;99153.94;7393381;19;20403;-69
2023/12/21 05:40:29;;;;;;;2.38;1.40;;;;;;;6.07;100.00;99152.19;7393076;19;20477;-69
2023/12/21 05:42:58;;;;;;;3.70;1.73;;;;;;;6.05;100.00;99146.16;7392152;19;20019;-69
2023/12/21 05:45:26;;;;;;;2.67;1.60;;;;;;;6.02;100.00;99128.88;7392512;19;20078;-69
2023/12/21 05:47:58;;;;;;;3.63;1.95;;;;;;;6.02;100.00;99144.47;7394518;19;20477;-68
2023/12/21 05:50:27;;;;;;;5.38;2.17;;;;;;;6.02;100.00;99138.44;7391880;19;20014;-70
2023/12/21 05:52:58;;;;;;;5.18;2.63;;;;;;;6.01;100.00;99121.09;7393015;19;20011;-69
2023/12/21 05:55:26;;;;;;;3.22;2.08;;;;;;;6.00;100.00;99106.38;7394088;19;20031;-68
2023/12/21 05:57:55;;;;;;;5.07;2.47;;;;;;;5.98;100.00;99105.56;7392957;19;20032;-71
2023/12/21 06:00:24;;;;;;;5.40;2.65;;;;;;;5.98;100.00;99119.44;7393723;19;20010;-69
2023/12/21 06:02:52;;;;;;;4.15;2.20;;;;;;;5.97;100.00;99107.28;7394465;19;20481;-69
2023/12/21 06:05:20;;;;;;;4.50;2.65;;;;;;;5.97;100.00;99099.47;7390547;19;20074;-68
2023/12/21 06:07:49;;;;;;;4.25;2.80;;;;;;;5.96;100.00;99100.38;7393351;19;20014;-69
2023/12/21 06:10:26;;;;;;;7.13;3.22;;;;;;;5.94;100.00;99104.78;7392729;19;20393;-69
2023/12/21 06:12:54;;;;;;;4.43;2.97;;;;;;;5.97;100.00;99096.88;7390831;19;20026;-68
2023/12/21 06:15:24;;;;;;;6.82;3.33;;;;;;;5.96;100.00;99076.94;7392710;19;20489;-69
2023/12/21 06:17:53;;;;;;;4.93;3.17;;;;;;;5.97;100.00;99067.41;7400155;19;20019;-69
2023/12/21 06:20:21;;;;;;;6.50;3.22;;;;;;;5.96;100.00;99066.53;7400195;19;20019;-69
2023/12/21 06:22:50;;;;;;;4.00;3.05;;;;;;;5.97;100.00;99077.81;7398837;19;20014;-69
2023/12/21 06:25:18;;;;;;;5.18;2.60;;;;;;;5.97;100.00;99060.44;7400316;19;20074;-70
2023/12/21 06:27:49;;;;;;;3.78;2.50;;;;;;;5.96;100.00;99061.31;7399874;19;20019;-72
2023/12/21 06:30:18;;;;;;;3.33;2.75;;;;;;;5.98;100.00;99063.91;7398242;19;20027;-69
2023/12/21 06:32:46;;;;;;;5.45;2.50;;;;;;;5.97;100.00;99042.22;7398058;19;20400;-67
2023/12/21 06:35:17;;;;;;;3.58;2.63;;;;;;;5.98;100.00;99038.75;7399507;19;20024;-69
2023/12/21 06:37:45;;;;;;;3.22;2.50;;;;;;;5.98;100.00;99036.13;7399587;19;20387;-69
2023/12/21 06:40:14;;;;;;;2.92;2.05;;;;;;;5.98;100.00;99028.34;7398882;19;20485;-68
2023/12/21 06:42:42;;;;;;;3.17;2.47;;;;;;;5.99;100.00;99040.44;7397910;19;20024;-68
2023/12/21 06:45:14;;;;;;;2.05;1.63;;;;;;;5.99;100.00;99024.84;7398464;19;20513;-69
2023/12/21 06:47:42;;;;;;;2.47;1.90;;;;;;;6.01;100.00;99022.19;7397035;19;20022;-68
2023/12/21 06:50:11;;;;;;;2.00;1.60;;;;;;;6.00;100.00;99020.47;7398224;19;20423;-69
2023/12/21 06:52:40;;;;;;;3.50;1.75;;;;;;;6.01;100.00;98996.16;7397990;19;20014;-69
2023/12/21 06:55:09;;;;;;;2.53;1.80;;;;;;;6.00;100.00;98990.09;7398215;19;20013;-68
2023/12/21 06:57:38;;;;;;;2.40;1.52;;;;;;;6.02;100.00;98990.03;7398664;19;20070;-68
2023/12/21 07:00:09;;;;;;;2.80;1.70;;;;;;;6.01;100.00;98981.38;7398950;19;20031;-68
2023/12/21 07:02:40;;;;;;;2.05;1.38;;;;;;;6.01;100.00;98981.38;7397089;19;20010;-68
2023/12/21 07:05:10;;;;;;;2.30;1.83;;;;;;;6.01;100.00;98962.31;7396652;19;20014;-66
2023/12/21 07:07:35;;;;;;;1.90;1.40;;;;;;;6.03;100.00;98966.56;7398273;19;20014;-67
2023/12/21 07:10:04;;;;;;;2.25;1.60;;;;;;;6.02;100.00;98962.25;7398320;19;20010;-67
2023/12/21 07:12:32;;;;;;;3.08;1.35;;;;;;;6.02;100.00;98958.81;7397355;19;20018;-67
2023/12/21 07:15:03;;;;;;;2.80;1.70;;;;;;;6.02;100.00;98945.78;7398815;19;20011;-67
2023/12/21 07:17:32;;;;;;;1.88;1.45;;;;;;;6.02;100.00;98946.63;7398994;19;20047;-67
2023/12/21 07:20:03;;;;;;;2.05;1.65;;;;;;;6.02;100.00;98941.41;7397991;19;20070;-67
2023/12/21 07:22:31;;;;;;;2.80;1.85;;;;;;;6.02;100.00;98931.00;7397721;19;20082;-68
2023/12/21 07:24:59;;;;;;;2.42;1.20;;;;;;;6.04;100.00;98928.38;7397782;19;20011;-68
2023/12/21 07:27:28;;;;;;;1.38;1.17;;;;;;;6.04;100.00;98912.75;7398230;19;20070;-68
2023/12/21 07:29:56;;;;;;;1.45;1.10;;;;;;;6.06;100.00;98916.13;7397960;19;20426;-67
2023/12/21 07:32:25;;;;;;;1.67;1.35;;;;;;;6.06;100.00;98894.47;7397982;19;20028;-67
2023/12/21 07:34:53;;;;;;;2.03;1.13;;;;;;;6.08;100.00;98903.94;7398084;19;20007;-67
2023/12/21 07:37:31;;;;;;;1.10;1.00;;;;;;;6.08;100.00;98906.53;7397881;19;20090;-67
2023/12/21 07:39:59;;;;;;;1.25;1.05;;;;;;;6.09;100.00;98879.59;7397740;19;20513;-67
2023/12/21 07:42:28;;;;;;;1.90;1.00;;;;;;;6.11;100.00;98869.97;7397521;19;20086;-66
2023/12/21 07:44:57;;;;;;;1.50;1.00;;;;;;;6.13;100.00;98854.28;7398625;19;20028;-66
2023/12/21 07:47:25;;;;;;;1.63;0.98;;;;;;;6.15;100.00;98847.28;7398530;19;20019;-67
2023/12/21 07:49:55;;;;;;;1.48;0.90;;;;;;;6.14;100.00;98832.56;7397266;19;20082;-66
2023/12/21 07:52:26;;;;;;;0.90;0.90;;;;;;;6.16;100.00;98838.59;7397067;19;20027;-66
2023/12/21 07:54:54;;;;;;;1.08;0.80;;;;;;;6.18;100.00;98827.22;7396124;19;20102;-66
2023/12/21 07:57:23;;;;;;;1.17;0.80;;;;;;;6.19;100.00;98815.03;7397450;19;20006;-74
2023/12/21 07:59:52;;;;;;;2.00;0.52;;;;;;;6.21;100.00;98815.84;7397354;19;20032;-69
2023/12/21 08:02:20;;;;;;;1.27;0.73;;;;;;;6.24;100.00;98805.28;7396525;19;20416;-66
2023/12/21 08:04:49;;;;;;;2.38;0.60;;;;;;;6.26;100.00;98797.47;7394570;19;20485;-67
2023/12/21 08:07:17;;;;;;;1.17;0.68;;;;;;;6.28;100.00;98777.41;7396589;19;20018;-67
2023/12/21 08:09:48;;;;;;;0.90;0.70;;;;;;;6.30;100.00;98767.78;7396332;19;20011;-68
2023/12/21 08:12:30;;;;;;;0.85;0.70;;;;;;;6.31;100.00;98765.13;7395595;19;20028;-67
2023/12/21 08:14:56;;;;;;;1.02;0.60;;;;;;;6.34;100.00;98759.81;7397178;19;20015;-67
2023/12/21 08:17:25;;;;;;;0.77;0.57;;;;;;;6.36;100.00;98752.78;7394854;19;20010;-67
2023/12/21 08:19:53;;;;;;;0.73;0.63;;;;;;;6.36;100.00;98731.94;7396181;19;20006;-68
2023/12/21 08:22:22;;;;;;;0.73;0.63;;;;;;;6.40;100.00;98729.25;7397354;19;20011;-67
2023/12/21 08:24:56;;;;;;;1.50;0.60;;;;;;;6.41;100.00;98721.38;7393840;19;20508;-67
2023/12/21 08:27:31;;;;;;;1.38;0.63;;;;;;;6.43;100.00;98711.75;7395656;19;20007;-70
2023/12/21 08:29:59;;;;;;;1.55;0.60;;;;;;;6.45;100.00;98703.88;7396259;19;20010;-67
2023/12/21 08:32:28;;;;;;;0.57;0.50;;;;;;;6.44;100.00;98723.84;7394853;19;20484;-68
2023/12/21 08:34:56;;;;;;;1.58;0.68;;;;;;;6.48;100.00;98704.59;7393871;19;20024;-70
2023/12/21 08:37:25;;;;;;;1.90;0.70;;;;;;;6.53;100.00;98688.78;7396162;19;20246;-69
2023/12/21 08:39:56;;;;;;;1.13;0.70;;;;;;;6.56;100.00;98670.44;7392110;19;20469;-69
2023/12/21 08:42:26;;;;;;;1.27;0.45;;;;;;;6.58;100.00;98657.34;7395650;19;20018;-70
2023/12/21 08:44:58;;;;;;;0.50;0.50;;;;;;;6.59;100.00;98653.84;7394093;19;20491;-69
2023/12/21 08:47:26;;;;;;;0.73;0.50;;;;;;;6.59;100.00;98641.66;7395444;19;20040;-68
2023/12/21 08:50:00;;;;;;;0.77;0.45;;;;;;;6.64;100.00;98654.50;7394127;19;20056;-69
2023/12/21 08:52:28;;;;;;;0.77;0.40;;;;;;;6.67;100.00;98625.72;7395519;19;20082;-68
2023/12/21 08:55:00;;;;;;;1.08;0.50;;;;;;;6.70;100.00;98620.38;7395046;19;20510;-68
2023/12/21 08:57:29;;;;;;;0.43;0.40;;;;;;;6.72;100.00;98618.56;7396113;19;20017;-68
2023/12/21 08:59:58;;;;;;;0.40;0.40;;;;;;;6.76;100.00;98611.47;7395573;19;20006;-68
2023/12/21 09:02:27;;;;;;;0.60;0.43;;;;;;;6.79;100.00;98608.75;7394672;19;20513;-67
2023/12/21 09:04:55;;;;;;;0.70;0.50;;;;;;;6.78;100.00;98599.22;7393602;19;20030;-66
2023/12/21 09:07:24;;;;;;;0.50;0.45;;;;;;;6.81;100.00;98584.31;7395060;19;20027;-70
2023/12/21 09:09:53;;;;;;;0.25;0.25;;;;;;;6.82;100.00;98583.41;7393369;19;20040;-69
2023/12/21 09:12:25;;;;;;;0.70;0.40;;;;;;;6.85;100.00;98566.81;7392167;19;20070;-69
2023/12/21 09:14:53;;;;;;;0.45;0.30;;;;;;;6.87;100.00;98571.94;7395145;19;20350;-69
2023/12/21 09:17:22;;;;;;;0.30;0.30;;;;;;;6.89;100.00;98563.16;7394980;19;20074;-69
2023/12/21 09:19:51;;;;;;;1.67;0.40;;;;;;;6.92;100.00;98555.19;7394759;19;20015;-69
2023/12/21 09:22:21;;;;;;;1.10;0.55;;;;;;;6.95;100.00;98535.97;7394573;19;20006;-69
2023/12/21 09:24:50;;;;;;;0.57;0.40;;;;;;;6.96;100.00;98538.53;7394154;19;20006;-70
2023/12/21 09:27:19;;;;;;;0.52;0.43;;;;;;;6.96;100.00;98535.91;7396665;19;20031;-68
2023/12/21 09:29:50;;;;;;;0.32;0.30;;;;;;;6.96;100.00;98529.84;7395392;19;20018;-68
2023/12/21 09:32:19;;;;;;;0.55;0.40;;;;;;;6.98;100.00;98521.03;7393580;19;20362;-65
2023/12/21 09:34:48;;;;;;;0.60;0.50;;;;;;;6.98;100.00;98526.25;7393979;19;20011;-65
2023/12/21 09:37:16;;;;;;;0.45;0.40;;;;;;;6.95;100.00;98502.06;7393315;19;20013;-65
2023/12/21 09:39:45;;;;;;;0.90;0.60;;;;;;;6.93;100.00;98507.34;7393679;19;20021;-65
2023/12/21 09:42:17;;;;;;;0.93;0.50;;;;;;;6.90;100.00;98511.84;7394503;19;20039;-69
2023/12/21 09:44:51;;;;;;;0.22;0.22;;;;;;;6.87;100.00;98507.59;7392504;19;20384;-68
2023/12/21 09:47:22;;;;;;;1.05;0.30;;;;;;;6.85;100.00;98473.78;7392656;19;20348;-68
2023/12/21 09:49:52;;;;;;;1.95;0.40;;;;;;;6.84;100.00;98492.94;7394119;19;20015;-68
2023/12/21 09:52:22;;;;;;;0.40;0.30;;;;;;;6.81;100.00;98481.81;7398969;19;20034;-68
2023/12/21 09:54:54;;;;;;;0.60;0.47;;;;;;;6.78;100.00;98474.97;7398177;19;20023;-68
2023/12/21 09:57:24;;;;;;;0.43;0.35;;;;;;;6.77;100.00;98490.66;7400759;19;20059;-66
2023/12/21 09:59:56;;;;;;;1.65;0.40;;;;;;;6.75;100.00;98466.41;7397943;19;20015;-65
2023/12/21 10:02:27;;;;;;;0.65;0.40;;;;;;;6.74;100.00;98462.16;7399491;19;20014;-65
2023/12/21 10:04:56;;;;;;;0.60;0.50;;;;;;;6.73;100.00;98457.84;7398153;19;20010;-66
2023/12/21 10:07:26;;;;;;;0.50;0.40;;;;;;;6.72;100.00;98440.50;7398451;19;20014;-65
2023/12/21 10:09:54;;;;;;;1.83;0.45;;;;;;;6.72;100.00;98435.31;7401144;19;20002;-65
2023/12/21 10:12:23;;;;;;;1.02;0.55;;;;;;;6.71;100.00;98423.19;7397111;19;20035;-65
2023/12/21 10:15:04;;;;;;;0.40;0.40;;;;;;;6.69;100.00;98426.69;7397897;19;20021;-65
2023/12/21 10:17:33;;;;;;;0.95;0.38;;;;;;;6.71;100.00;98412.75;7399104;19;20022;-65
2023/12/21 10:20:03;;;;;;;1.17;0.65;;;;;;;6.70;100.00;98404.09;7400277;19;20027;-64
2023/12/21 10:22:32;;;;;;;0.90;0.90;;;;;;;6.71;100.00;98397.13;7397604;19;20488;-65
2023/12/21 10:25:01;;;;;;;1.83;1.13;;;;;;;6.71;100.00;98365.84;7397485;19;20014;-65
2023/12/21 10:27:29;;;;;;;0.93;0.50;;;;;;;6.72;100.00;98383.19;7397439;19;20075;-66
2023/12/21 10:29:58;;;;;;;0.60;0.60;;;;;;;6.71;100.00;98365.84;7400257;19;20011;-67
2023/12/21 10:32:29;;;;;;;1.50;0.75;;;;;;;6.73;100.00;98364.03;7400313;19;20033;-67
2023/12/21 10:34:59;;;;;;;1.80;0.90;;;;;;;6.72;100.00;98344.94;7400142;19;20027;-67
2023/12/21 10:37:28;;;;;;;0.70;0.60;;;;;;;6.72;100.00;98323.25;7400067;19;20032;-67
2023/12/21 10:39:58;;;;;;;2.33;1.00;;;;;;;6.73;100.00;98302.31;7399711;19;20078;-65
2023/12/21 10:42:27;;;;;;;0.80;0.65;;;;;;;6.69;100.00;98291.19;7400767;19;20010;-67
2023/12/21 10:44:57;;;;;;;0.60;0.55;;;;;;;6.75;100.00;98297.03;7398456;19;20099;-65
2023/12/21 10:47:30;;;;;;;1.25;0.70;;;;;;;6.75;100.00;98284.00;7399514;19;20006;-64
2023/12/21 10:49:58;;;;;;;0.75;0.63;;;;;;;6.75;100.00;98291.81;7399589;19;20098;-65
2023/12/21 10:52:34;;;;;;;0.93;0.50;;;;;;;6.76;100.00;98288.31;7398444;19;20031;-65
2023/12/21 10:55:04;;;;;;;0.65;0.65;;;;;;;6.78;100.00;98257.81;7399866;19;20006;-62
2023/12/21 10:57:33;;;;;;;0.60;0.60;;;;;;;6.80;100.00;98256.84;7396787;19;20380;-62
2023/12/21 11:00:02;;;;;;;1.35;0.93;;;;;;;6.85;100.00;98256.63;7396726;19;20545;-61
2023/12/21 11:02:34;;;;;;;1.10;0.70;;;;;;;6.89;100.00;98245.13;7396909;19;20044;-66
2023/12/21 11:05:03;;;;;;;1.38;0.50;;;;;;;6.90;100.00;98233.81;7396291;19;20019;-66
2023/12/21 11:07:32;;;;;;;0.82;0.52;;;;;;;6.90;100.00;98230.34;7396512;19;20010;-66
2023/12/21 11:10:02;;;;;;;0.47;0.47;;;;;;;6.90;100.00;98223.38;7397581;19;20029;-66
2023/12/21 11:12:31;;;;;;;0.43;0.35;;;;;;;6.90;100.00;98212.09;7398152;19;20028;-66
2023/12/21 11:14:59;;;;;;;0.98;0.70;;;;;;;6.88;100.00;98190.47;7398703;19;20509;-66
2023/12/21 11:17:29;;;;;;;0.82;0.50;;;;;;;6.87;100.00;98194.84;7398674;19;20014;-66
2023/12/21 11:20:01;;;;;;;0.68;0.50;;;;;;;6.88;100.00;98199.13;7398363;19;20350;-66
2023/12/21 11:22:29;;;;;;;0.75;0.43;;;;;;;6.87;100.00;98179.19;7398275;19;20631;-67
2023/12/21 11:25:07;;;;;;;0.93;0.40;;;;;;;6.88;100.00;98174.84;7395581;19;20496;-66
2023/12/21 11:27:38;;;;;;;0.57;0.40;;;;;;;6.87;100.00;98178.38;7398843;19;20085;-66
2023/12/21 11:30:12;;;;;;;0.68;0.47;;;;;;;6.88;100.00;98160.03;7398019;19;20011;-67
2023/12/21 11:32:42;;;;;;;1.88;0.80;;;;;;;6.90;100.00;98155.59;7398140;19;20006;-67
2023/12/21 11:35:25;;;;;;;1.98;0.80;;;;;;;6.91;100.00;98146.84;7396448;19;20010;-66
2023/12/21 11:37:55;;;;;;;2.60;0.75;;;;;;;6.92;100.00;98132.91;7395670;19;20010;-67
2023/12/21 11:40:24;;;;;;;2.25;1.00;;;;;;;6.92;100.00;98114.66;7398521;19;20081;-66
2023/12/21 11:42:56;;;;;;;2.30;0.70;;;;;;;6.96;100.00;98115.34;7395430;19;20018;-66